Boston, Texas
Current Conditions -  °F | °C
As of 12:53 AM on Friday 28 Nov 2014 (Local Time) from KTXK Reporting Station
Clear Clear  
Wind Chill: 34°   Ceiling: Unl
Heat Index: 39°   Visibility: 10mi
Dew Point: 31°   Wind: 7mph
Humidity: 73%   Direction: 130°SE
Pressure: 30.39"   Gusts: NA
Location:  33.4799°N, 94.4582°W
Report Text: KTXK 280653Z AUTO 13006KT 10SM CLR 04/M01 A3039 RMK AO2 SLP291 T00391006
Loading
Personal Weather Stations






























Interactive Weather Map New forecast layout! Learn more

10-Day Weather Forecast

Advertisements
Track Severe Weather on mobile